createdAt,value
2017-01-27T00:00:32.444Z,65.31
2017-01-27T00:01:32.447Z,65.28
2017-01-27T00:02:32.104Z,64.84
2017-01-27T00:03:32.073Z,64.84
2017-01-27T00:04:32.477Z,65.03
2017-01-27T00:05:32.505Z,65.22
2017-01-27T00:06:32.507Z,65.66
2017-01-27T00:07:32.544Z,65.41
2017-01-27T00:08:32.515Z,65.5
2017-01-27T00:09:32.529Z,65.41
2017-01-27T00:10:32.557Z,65.59
2017-01-27T00:11:32.550Z,65.41
2017-01-27T00:12:32.565Z,65.59
2017-01-27T00:13:32.574Z,65.41
2017-01-27T00:14:32.584Z,65.31
2017-01-27T00:15:32.596Z,65.41
2017-01-27T00:16:32.598Z,65.22
2017-01-27T00:17:32.620Z,65.37
2017-01-27T00:18:32.629Z,65.59
2017-01-27T00:19:32.634Z,65.31
2017-01-27T00:20:32.650Z,65.22
2017-01-27T00:21:32.655Z,65.5
2017-01-27T00:22:32.665Z,65.5
2017-01-27T00:23:32.681Z,65.41
2017-01-27T00:24:32.693Z,65.41
2017-01-27T00:25:32.694Z,65.37
2017-01-27T00:26:32.310Z,65.37
2017-01-27T00:27:32.723Z,65.28
2017-01-27T00:28:32.740Z,65.28
2017-01-27T00:29:32.734Z,65.56
2017-01-27T00:30:32.750Z,65.47
2017-01-27T00:31:32.761Z,65.37
2017-01-27T00:32:32.768Z,65.66
2017-01-27T00:33:32.786Z,65.66
2017-01-27T00:34:32.800Z,65.47
2017-01-27T00:35:32.795Z,65.47
2017-01-27T00:36:32.808Z,65.37
2017-01-27T00:37:32.819Z,65.84
2017-01-27T00:38:32.832Z,65.37
2017-01-27T00:39:32.448Z,65.75
2017-01-27T00:40:32.460Z,65.75
2017-01-27T00:41:32.873Z,65.75
2017-01-27T00:42:32.875Z,65.56
2017-01-27T00:43:32.886Z,65.94
2017-01-27T00:44:32.896Z,65.56
2017-01-27T00:45:32.898Z,65.56
2017-01-27T00:46:32.917Z,65.56
2017-01-27T00:47:32.927Z,65.66
2017-01-27T00:48:32.931Z,65.47
2017-01-27T00:49:32.946Z,65.56
2017-01-27T00:50:32.962Z,65.56
2017-01-27T00:51:32.965Z,65.56
2017-01-27T00:52:32.979Z,65.75
2017-01-27T00:53:32.999Z,65.84
2017-01-27T00:54:32.996Z,65.37
2017-01-27T00:55:33.035Z,65.37
2017-01-27T00:56:33.019Z,65.28
2017-01-27T00:57:33.031Z,65.47
2017-01-27T00:58:33.040Z,65.75
2017-01-27T00:59:33.060Z,65.47
2017-01-27T01:00:33.060Z,65.56
2017-01-27T01:01:33.078Z,65.66
2017-01-27T01:02:33.144Z,65.66
2017-01-27T01:03:33.091Z,65.47
2017-01-27T01:04:33.103Z,65.28
2017-01-27T01:05:33.110Z,65.37
2017-01-27T01:06:33.120Z,65.75
2017-01-27T01:07:33.189Z,65.84
2017-01-27T01:08:33.146Z,65.56
2017-01-27T01:09:33.156Z,65.56
2017-01-27T01:10:32.767Z,65.75
2017-01-27T01:11:32.783Z,65.66
2017-01-27T01:12:33.190Z,65.75
2017-01-27T01:13:33.202Z,65.94
2017-01-27T01:14:33.210Z,65.75
2017-01-27T01:15:33.218Z,65.84
2017-01-27T01:16:33.232Z,65.66
2017-01-27T01:17:33.241Z,65.75
2017-01-27T01:18:33.251Z,65.56
2017-01-27T01:19:33.258Z,65.37
2017-01-27T01:20:33.276Z,65.66
2017-01-27T01:21:33.277Z,65.37
2017-01-27T01:22:33.291Z,65.47
2017-01-27T01:23:33.308Z,65.37
2017-01-27T01:24:32.921Z,65.47
2017-01-27T01:25:32.932Z,65.47
2017-01-27T01:26:32.942Z,65.28
2017-01-27T01:27:33.348Z,65.28
2017-01-27T01:28:33.351Z,65.28
2017-01-27T01:29:33.366Z,65.19
2017-01-27T01:30:33.380Z,65.37
2017-01-27T01:31:32.988Z,65.37
2017-01-27T01:32:33.389Z,65.47
2017-01-27T01:33:33.417Z,65.28
2017-01-27T01:34:33.411Z,65.56
2017-01-27T01:35:33.418Z,65.66
2017-01-27T01:36:33.440Z,65.75
2017-01-27T01:37:33.448Z,65.37
2017-01-27T01:38:33.459Z,65.66
2017-01-27T01:39:33.494Z,65.47
2017-01-27T01:40:33.475Z,65.66
2017-01-27T01:41:33.494Z,65.66
2017-01-27T01:42:33.500Z,65.75
2017-01-27T01:43:33.513Z,65.66
2017-01-27T01:44:33.513Z,65.56
2017-01-27T01:45:33.532Z,65.47
2017-01-27T01:46:33.576Z,65.19
2017-01-27T01:47:33.557Z,65.19
2017-01-27T01:48:33.565Z,65.19
2017-01-27T01:49:33.576Z,65.47
2017-01-27T01:50:33.584Z,65.56
2017-01-27T01:51:33.599Z,65.28
2017-01-27T01:52:33.201Z,65.75
2017-01-27T01:53:33.608Z,65.66
2017-01-27T01:54:33.634Z,65.75
2017-01-27T01:55:33.631Z,65.47
2017-01-27T01:56:33.636Z,65.47
2017-01-27T01:57:33.647Z,65.75
2017-01-27T01:58:33.652Z,65.56
2017-01-27T01:59:33.664Z,65.94
2017-01-27T02:00:33.683Z,65.84
2017-01-27T02:01:33.694Z,65.84
2017-01-27T02:02:33.699Z,65.66
2017-01-27T02:03:33.707Z,65.84
2017-01-27T02:04:33.714Z,65.47
2017-01-27T02:05:33.729Z,65.56
2017-01-27T02:06:33.736Z,66.13
2017-01-27T02:07:33.745Z,65.66
2017-01-27T02:08:33.761Z,66.41
2017-01-27T02:09:33.766Z,66.13
2017-01-27T02:10:33.774Z,66.13
2017-01-27T02:11:33.793Z,66.41
2017-01-27T02:12:33.797Z,66.13
2017-01-27T02:13:33.814Z,66.32
2017-01-27T02:14:33.868Z,66.22
2017-01-27T02:15:33.837Z,66.22
2017-01-27T02:16:33.836Z,66.22
2017-01-27T02:17:33.859Z,66.22
2017-01-27T02:18:33.866Z,66.13
2017-01-27T02:19:33.879Z,66.32
2017-01-27T02:20:33.899Z,66.22
2017-01-27T02:21:33.912Z,66.32
2017-01-27T02:22:33.909Z,66.41
2017-01-27T02:23:33.913Z,66.41
2017-01-27T02:24:33.916Z,66.13
2017-01-27T02:25:33.926Z,66.51
2017-01-27T02:26:33.941Z,66.32
2017-01-27T02:27:33.952Z,66.13
2017-01-27T02:28:33.956Z,66.22
2017-01-27T02:29:33.971Z,66.22
2017-01-27T02:30:33.985Z,66.03
2017-01-27T02:31:33.994Z,66.41
2017-01-27T02:32:34.010Z,66.22
2017-01-27T02:33:34.011Z,66.13
2017-01-27T02:34:34.018Z,66.22
2017-01-27T02:35:34.027Z,66.22
2017-01-27T02:36:34.045Z,65.94
2017-01-27T02:37:34.049Z,65.94
2017-01-27T02:38:34.065Z,66.13
2017-01-27T02:39:34.082Z,66.13
2017-01-27T02:40:34.091Z,66.13
2017-01-27T02:41:34.092Z,66.22
2017-01-27T02:42:34.101Z,66.22
2017-01-27T02:43:34.111Z,66.32
2017-01-27T02:44:34.132Z,66.03
2017-01-27T02:45:34.134Z,66.32
2017-01-27T02:46:34.146Z,66.32
2017-01-27T02:47:34.149Z,66.03
2017-01-27T02:48:34.162Z,66.03
2017-01-27T02:49:34.173Z,66.41
2017-01-27T02:50:34.183Z,66.51
2017-01-27T02:51:34.197Z,66.41
2017-01-27T02:52:34.326Z,66.03
2017-01-27T02:53:34.213Z,66.22
2017-01-27T02:54:34.222Z,66.32
2017-01-27T02:55:34.239Z,66.13
2017-01-27T02:56:34.271Z,66.13
2017-01-27T02:57:34.250Z,65.84
2017-01-27T02:58:34.264Z,66.41
2017-01-27T02:59:34.282Z,66.03
2017-01-27T03:00:34.287Z,65.94
2017-01-27T03:01:34.297Z,66.22
2017-01-27T03:02:34.314Z,66.13
2017-01-27T03:03:34.313Z,66.22
2017-01-27T03:04:34.348Z,66.28
2017-01-27T03:05:34.331Z,66.13
2017-01-27T03:06:34.348Z,66.13
2017-01-27T03:07:34.355Z,65.91
2017-01-27T03:08:33.968Z,66.41
2017-01-27T03:09:34.375Z,66.22
2017-01-27T03:10:33.991Z,66.22
2017-01-27T03:11:34.394Z,66.51
2017-01-27T03:12:34.406Z,66.03
2017-01-27T03:13:34.413Z,66.89
2017-01-27T03:14:34.425Z,66.8
2017-01-27T03:15:34.434Z,66.51
2017-01-27T03:16:34.448Z,66.32
2017-01-27T03:17:34.060Z,66.6
2017-01-27T03:18:34.465Z,66.22
2017-01-27T03:19:34.481Z,66.6
2017-01-27T03:20:34.483Z,66.51
2017-01-27T03:21:34.495Z,66.09
2017-01-27T03:22:34.502Z,66.13
2017-01-27T03:23:34.121Z,66.47
2017-01-27T03:24:34.531Z,66.13
2017-01-27T03:25:34.532Z,66
2017-01-27T03:26:34.546Z,66.22
2017-01-27T03:27:34.554Z,65.91
2017-01-27T03:28:34.560Z,66.8
2017-01-27T03:29:34.573Z,66.19
2017-01-27T03:30:34.583Z,66.28
2017-01-27T03:31:34.593Z,66.19
2017-01-27T03:32:34.602Z,66.19
2017-01-27T03:33:34.612Z,66.19
2017-01-27T03:34:34.628Z,66.38
2017-01-27T03:35:34.631Z,66
2017-01-27T03:36:34.641Z,66.38
2017-01-27T03:37:34.651Z,66.19
2017-01-27T03:38:34.660Z,66.09
2017-01-27T03:39:34.674Z,66.09
2017-01-27T03:40:34.687Z,66.19
2017-01-27T03:41:34.695Z,66.19
2017-01-27T03:42:34.704Z,66.47
2017-01-27T03:43:34.717Z,66.09
2017-01-27T03:44:34.721Z,66.09
2017-01-27T03:45:34.735Z,66.09
2017-01-27T03:46:34.746Z,65.91
2017-01-27T03:47:34.751Z,65.91
2017-01-27T03:48:34.756Z,66.76
2017-01-27T03:49:34.769Z,66.57
2017-01-27T03:50:34.784Z,66.76
2017-01-27T03:51:34.793Z,66.38
2017-01-27T03:52:34.808Z,65.91
2017-01-27T03:53:34.413Z,66.19
2017-01-27T03:54:34.824Z,65.91
2017-01-27T03:55:34.836Z,66.19
2017-01-27T03:56:34.842Z,66.19
2017-01-27T03:57:34.848Z,66.19
2017-01-27T03:58:34.858Z,66.28
2017-01-27T03:59:34.884Z,66.19
2017-01-27T04:00:34.877Z,66.09
2017-01-27T04:01:34.891Z,66.67
2017-01-27T04:02:34.897Z,66.19
2017-01-27T04:03:34.911Z,66.19
2017-01-27T04:04:34.916Z,66.09
2017-01-27T04:05:34.926Z,66.47
2017-01-27T04:06:34.954Z,66.19
2017-01-27T04:07:34.947Z,66.09
2017-01-27T04:08:34.566Z,66.38
2017-01-27T04:09:34.970Z,66.09
2017-01-27T04:10:34.976Z,66.19
2017-01-27T04:11:34.993Z,66.19
2017-01-27T04:12:34.995Z,65.81
2017-01-27T04:13:35.006Z,65.91
2017-01-27T04:14:35.047Z,66.38
2017-01-27T04:15:35.025Z,65.91
2017-01-27T04:16:35.035Z,66.09
2017-01-27T04:17:35.050Z,66
2017-01-27T04:18:35.061Z,66
2017-01-27T04:19:35.070Z,66
2017-01-27T04:20:35.084Z,66.38
2017-01-27T04:21:35.085Z,66.57
2017-01-27T04:22:35.096Z,66.76
2017-01-27T04:23:35.107Z,65.91
2017-01-27T04:24:35.132Z,65.91
2017-01-27T04:25:35.125Z,66.57
2017-01-27T04:26:34.741Z,66
2017-01-27T04:27:35.147Z,66
2017-01-27T04:28:35.151Z,66.57
2017-01-27T04:29:35.160Z,66.67
2017-01-27T04:30:34.777Z,66.19
2017-01-27T04:31:35.177Z,66.57
2017-01-27T04:32:35.193Z,66.38
2017-01-27T04:33:35.199Z,66.19
2017-01-27T04:34:35.217Z,66.19
2017-01-27T04:35:35.220Z,66
2017-01-27T04:36:35.257Z,66.19
2017-01-27T04:37:35.243Z,66.09
2017-01-27T04:38:35.246Z,66.09
2017-01-27T04:39:35.262Z,66.19
2017-01-27T04:40:35.270Z,66.09
2017-01-27T04:41:35.293Z,66.19
2017-01-27T04:42:35.289Z,66.09
2017-01-27T04:43:35.294Z,66
2017-01-27T04:44:35.307Z,66.67
2017-01-27T04:45:35.316Z,66.19
2017-01-27T04:46:35.344Z,66.09
2017-01-27T04:47:35.344Z,66.76
2017-01-27T04:48:35.345Z,66.09
2017-01-27T04:49:35.368Z,66.19
2017-01-27T04:50:35.364Z,65.91
2017-01-27T04:51:35.375Z,66.19
2017-01-27T04:52:35.386Z,66.57
2017-01-27T04:53:35.397Z,66.09
2017-01-27T04:54:35.419Z,65.91
2017-01-27T04:55:35.415Z,66.19
2017-01-27T04:56:35.433Z,66.47
2017-01-27T04:57:35.042Z,66
2017-01-27T04:58:35.448Z,66.09
2017-01-27T04:59:35.448Z,66.47
2017-01-27T05:00:35.463Z,66.57
2017-01-27T05:01:35.484Z,66.38
2017-01-27T05:02:35.483Z,66.38
2017-01-27T05:03:35.093Z,66.38
2017-01-27T05:04:35.497Z,66.47
2017-01-27T05:05:35.506Z,66.38
2017-01-27T05:06:35.127Z,66.38
2017-01-27T05:07:35.523Z,65.91
2017-01-27T05:08:35.535Z,66.57
2017-01-27T05:09:35.542Z,66.86
2017-01-27T05:10:35.166Z,66.76
2017-01-27T05:11:35.566Z,66.76
2017-01-27T05:12:35.183Z,66.76
2017-01-27T05:13:35.589Z,66.28
2017-01-27T05:14:35.598Z,66.95
2017-01-27T05:15:35.608Z,66.86
2017-01-27T05:16:35.611Z,66.95
2017-01-27T05:17:35.621Z,66.47
2017-01-27T05:18:35.630Z,66.57
2017-01-27T05:19:35.648Z,66.67
2017-01-27T05:20:35.649Z,66.38
2017-01-27T05:21:35.659Z,66.76
2017-01-27T05:22:35.670Z,66.67
2017-01-27T05:23:35.677Z,66.67
2017-01-27T05:24:35.688Z,66.47
2017-01-27T05:25:35.702Z,66.47
2017-01-27T05:26:35.709Z,66.76
2017-01-27T05:27:35.721Z,66.57
2017-01-27T05:28:35.726Z,66.67
2017-01-27T05:29:35.735Z,66.28
2017-01-27T05:30:35.743Z,66.38
2017-01-27T05:31:35.753Z,66.47
2017-01-27T05:32:35.764Z,66.86
2017-01-27T05:33:35.778Z,66.38
2017-01-27T05:34:35.780Z,66.86
2017-01-27T05:35:35.792Z,66.57
2017-01-27T05:36:35.803Z,66.57
2017-01-27T05:37:35.816Z,66.95
2017-01-27T05:38:35.823Z,66.28
2017-01-27T05:39:35.828Z,66.86
2017-01-27T05:40:35.459Z,66.57
2017-01-27T05:41:35.854Z,66.57
2017-01-27T05:42:35.865Z,66.95
2017-01-27T05:43:35.868Z,67.05
2017-01-27T05:44:35.874Z,66.38
2017-01-27T05:45:35.887Z,66.76
2017-01-27T05:46:35.896Z,66.47
2017-01-27T05:47:35.907Z,66.57
2017-01-27T05:48:35.918Z,66.95
2017-01-27T05:49:35.920Z,66.57
2017-01-27T05:50:35.939Z,66.47
2017-01-27T05:51:35.973Z,66.57
2017-01-27T05:52:35.954Z,66.57
2017-01-27T05:53:35.962Z,66.57
2017-01-27T05:54:35.978Z,66.57
2017-01-27T05:55:35.983Z,66.57
2017-01-27T05:56:35.596Z,66.76
2017-01-27T05:57:36.010Z,66.57
2017-01-27T05:58:36.011Z,66.76
2017-01-27T05:59:36.017Z,66.95
2017-01-27T06:00:36.031Z,66.76
2017-01-27T06:01:36.037Z,66.86
2017-01-27T06:02:36.050Z,66.86
2017-01-27T06:03:36.063Z,66.86
2017-01-27T06:04:36.069Z,66.76
2017-01-27T06:05:36.077Z,66.47
2017-01-27T06:06:36.081Z,66.47
2017-01-27T06:07:36.094Z,66.95
2017-01-27T06:08:35.705Z,66.47
2017-01-27T06:09:36.116Z,66.47
2017-01-27T06:10:35.724Z,66.47
2017-01-27T06:11:36.127Z,66.67
2017-01-27T06:12:36.139Z,66.38
2017-01-27T06:13:36.153Z,66.47
2017-01-27T06:14:35.763Z,66.76
2017-01-27T06:15:35.783Z,66.38
2017-01-27T06:16:36.180Z,66.38
2017-01-27T06:17:36.192Z,66.76
2017-01-27T06:18:36.198Z,66.76
2017-01-27T06:19:36.206Z,66.67
2017-01-27T06:20:36.221Z,66.57
2017-01-27T06:21:36.237Z,66.95
2017-01-27T06:22:36.244Z,66.95
2017-01-27T06:23:36.244Z,66.86
2017-01-27T06:24:36.263Z,66.76
2017-01-27T06:25:36.267Z,67.71
2017-01-27T06:26:36.304Z,66.95
2017-01-27T06:27:36.281Z,66.47
2017-01-27T06:28:36.289Z,66.57
2017-01-27T06:29:36.313Z,66.47
2017-01-27T06:30:36.316Z,66.57
2017-01-27T06:31:35.927Z,66.76
2017-01-27T06:32:36.329Z,66.67
2017-01-27T06:33:36.340Z,66.38
2017-01-27T06:34:36.353Z,67.05
2017-01-27T06:35:36.357Z,67.05
2017-01-27T06:36:36.363Z,67.43
2017-01-27T06:37:36.379Z,67.24
2017-01-27T06:38:36.390Z,67.24
2017-01-27T06:39:36.402Z,67.43
2017-01-27T06:40:36.405Z,66.95
2017-01-27T06:41:36.027Z,67.24
2017-01-27T06:42:36.040Z,67.43
2017-01-27T06:43:36.429Z,66.95
2017-01-27T06:44:36.048Z,67.24
2017-01-27T06:45:36.451Z,67.24
2017-01-27T06:46:36.071Z,67.14
2017-01-27T06:47:36.469Z,67.43
2017-01-27T06:48:36.096Z,67.14
2017-01-27T06:49:36.496Z,67.43
2017-01-27T06:50:36.493Z,67.33
2017-01-27T06:51:36.507Z,67.43
2017-01-27T06:52:36.119Z,67.05
2017-01-27T06:53:36.525Z,67.24
2017-01-27T06:54:36.532Z,67.14
2017-01-27T06:55:36.581Z,67.14
2017-01-27T06:56:36.586Z,67.33
2017-01-27T06:57:36.559Z,67.43
2017-01-27T06:58:36.569Z,67.33
2017-01-27T06:59:36.581Z,67.43
2017-01-27T07:00:36.592Z,67.43
2017-01-27T07:01:36.631Z,67.05
2017-01-27T07:02:36.619Z,67.14
2017-01-27T07:03:36.617Z,67.33
2017-01-27T07:04:36.624Z,67.05
2017-01-27T07:05:36.634Z,67.33
2017-01-27T07:06:36.650Z,67.05
2017-01-27T07:07:36.657Z,67.52
2017-01-27T07:08:36.664Z,67.43
2017-01-27T07:09:36.675Z,67.05
2017-01-27T07:10:36.683Z,67.24
2017-01-27T07:11:36.695Z,67.14
2017-01-27T07:12:36.702Z,67.05
2017-01-27T07:13:36.708Z,67.24
2017-01-27T07:14:36.726Z,67.24
2017-01-27T07:15:36.930Z,67.24
2017-01-27T07:16:36.748Z,67.24
2017-01-27T07:17:36.747Z,67.24
2017-01-27T07:18:36.756Z,67.33
2017-01-27T07:19:36.771Z,67.24
2017-01-27T07:20:36.778Z,66.95
2017-01-27T07:21:36.415Z,67.33
2017-01-27T07:22:36.792Z,67.05
2017-01-27T07:23:36.840Z,67.14
2017-01-27T07:24:36.814Z,67.05
2017-01-27T07:25:36.821Z,67.33
2017-01-27T07:26:36.829Z,67.33
2017-01-27T07:27:36.863Z,67.05
2017-01-27T07:28:36.846Z,67.43
2017-01-27T07:29:36.858Z,67.52
2017-01-27T07:30:36.870Z,67.43
2017-01-27T07:31:36.890Z,67.43
2017-01-27T07:32:36.889Z,67.52
2017-01-27T07:33:36.897Z,67.33
2017-01-27T07:34:36.903Z,67.43
2017-01-27T07:35:36.523Z,67.24
2017-01-27T07:36:36.932Z,67.43
2017-01-27T07:37:36.937Z,67.43
2017-01-27T07:38:36.942Z,67.43
2017-01-27T07:39:36.949Z,67.43
2017-01-27T07:40:36.956Z,67.43
2017-01-27T07:41:37.122Z,67.43
2017-01-27T07:42:36.980Z,67.43
2017-01-27T07:43:36.991Z,67.05
2017-01-27T07:44:36.998Z,67.43
2017-01-27T07:45:37.005Z,67.43
2017-01-27T07:46:37.015Z,67.33
2017-01-27T07:47:37.039Z,67.52
2017-01-27T07:48:37.035Z,67.43
2017-01-27T07:49:37.046Z,67.43
2017-01-27T07:50:37.054Z,67.43
2017-01-27T07:51:37.065Z,67.43
2017-01-27T07:52:37.084Z,67.05
2017-01-27T07:53:37.090Z,67.43
2017-01-27T07:54:37.092Z,67.43
2017-01-27T07:55:37.104Z,67.33
2017-01-27T07:56:37.114Z,67.24
2017-01-27T07:57:37.125Z,67.14
2017-01-27T07:58:37.136Z,67.14
2017-01-27T07:59:37.135Z,67.05
2017-01-27T08:00:37.148Z,66.95
2017-01-27T08:01:37.156Z,67.33
2017-01-27T08:02:37.175Z,67.24
2017-01-27T08:03:37.184Z,67.05
2017-01-27T08:04:36.795Z,67.14
2017-01-27T08:05:37.212Z,67.24
2017-01-27T08:06:37.212Z,67.14
2017-01-27T08:07:37.222Z,67.24
2017-01-27T08:08:37.231Z,67.24
2017-01-27T08:09:37.272Z,67.14
2017-01-27T08:10:37.241Z,67.14
2017-01-27T08:11:37.253Z,67.33
2017-01-27T08:12:37.261Z,67.05
2017-01-27T08:13:37.273Z,67.14
2017-01-27T08:14:37.279Z,67.14
2017-01-27T08:15:37.292Z,67.24
2017-01-27T08:16:37.313Z,67.14
2017-01-27T08:17:37.326Z,67.24
2017-01-27T08:18:36.928Z,67.24
2017-01-27T08:19:37.326Z,67.43
2017-01-27T08:20:37.337Z,67.52
2017-01-27T08:21:37.352Z,67.43
2017-01-27T08:22:37.354Z,67.24
2017-01-27T08:23:37.365Z,67.61
2017-01-27T08:24:37.390Z,67.33
2017-01-27T08:25:37.393Z,67.43
2017-01-27T08:26:37.388Z,67.33
2017-01-27T08:27:37.399Z,67.61
2017-01-27T08:28:37.409Z,67.33
2017-01-27T08:29:37.417Z,67.8
2017-01-27T08:30:37.428Z,67.71
2017-01-27T08:31:37.446Z,67.43
2017-01-27T08:32:37.053Z,67.61
2017-01-27T08:33:37.063Z,67.52
2017-01-27T08:34:37.466Z,67.24
2017-01-27T08:35:37.498Z,67.33
2017-01-27T08:36:37.487Z,67.33
2017-01-27T08:37:37.493Z,67.33
2017-01-27T08:38:37.535Z,67.33
2017-01-27T08:39:37.520Z,67.43
2017-01-27T08:40:37.532Z,67.24
2017-01-27T08:41:37.544Z,67.14
2017-01-27T08:42:37.542Z,67.24
2017-01-27T08:43:37.567Z,67.18
2017-01-27T08:44:37.567Z,67.24
2017-01-27T08:45:37.579Z,67.33
2017-01-27T08:46:37.591Z,67.27
2017-01-27T08:47:37.590Z,67.33
2017-01-27T08:48:37.599Z,67.33
2017-01-27T08:49:37.620Z,67.27
2017-01-27T08:50:37.619Z,67.33
2017-01-27T08:51:37.255Z,67.36
2017-01-27T08:52:37.647Z,67.46
2017-01-27T08:53:37.650Z,67.24
2017-01-27T08:54:37.661Z,67.27
2017-01-27T08:55:37.272Z,67.27
2017-01-27T08:56:37.675Z,67.36
2017-01-27T08:57:37.695Z,67.36
2017-01-27T08:58:37.696Z,67.18
2017-01-27T08:59:37.338Z,67.18
2017-01-27T09:00:37.711Z,67.18
2017-01-27T09:01:37.730Z,67.18
2017-01-27T09:02:37.737Z,67.27
2017-01-27T09:03:37.741Z,67.18
2017-01-27T09:04:37.749Z,67.18
2017-01-27T09:05:37.788Z,67.27
2017-01-27T09:06:37.782Z,67.27
2017-01-27T09:07:37.778Z,67.46
2017-01-27T09:08:37.791Z,67.18
2017-01-27T09:09:37.408Z,67.27
2017-01-27T09:10:37.812Z,67.27
2017-01-27T09:11:37.816Z,67.27
2017-01-27T09:12:37.829Z,66.99
2017-01-27T09:13:37.849Z,67.08
2017-01-27T09:14:37.850Z,67.46
2017-01-27T09:15:37.857Z,67.46
2017-01-27T09:16:37.864Z,67.18
2017-01-27T09:17:37.884Z,67.36
2017-01-27T09:18:37.885Z,67.08
2017-01-27T09:19:37.891Z,67.36
2017-01-27T09:20:37.902Z,66.99
2017-01-27T09:21:37.917Z,67.46
2017-01-27T09:22:37.927Z,67.46
2017-01-27T09:23:37.933Z,67.46
2017-01-27T09:24:37.942Z,67.46
2017-01-27T09:25:37.967Z,67.27
2017-01-27T09:26:37.964Z,67.18
2017-01-27T09:27:37.576Z,67.08
2017-01-27T09:28:37.982Z,67.27
2017-01-27T09:29:38.011Z,67.27
2017-01-27T09:30:38.004Z,67.46
2017-01-27T09:31:38.014Z,67.36
2017-01-27T09:32:38.026Z,67.08
2017-01-27T09:33:38.034Z,67.18
2017-01-27T09:34:38.041Z,66.7
2017-01-27T09:35:38.050Z,66.6
2017-01-27T09:36:38.062Z,66.51
2017-01-27T09:37:38.073Z,66.99
2017-01-27T09:38:38.080Z,67.77
2017-01-27T09:39:38.090Z,66.83
2017-01-27T09:40:38.107Z,66.83
2017-01-27T09:41:38.162Z,66.51
2017-01-27T09:42:38.119Z,66.74
2017-01-27T09:43:38.137Z,66.64
2017-01-27T09:44:38.147Z,67.11
2017-01-27T09:45:38.151Z,66.83
2017-01-27T09:46:38.165Z,66.54
2017-01-27T09:47:38.171Z,66.35
2017-01-27T09:48:37.787Z,66.54
2017-01-27T09:49:38.193Z,66.93
2017-01-27T09:50:38.202Z,66.93
2017-01-27T09:51:38.212Z,67.21
2017-01-27T09:52:38.218Z,66.74
2017-01-27T09:53:38.232Z,66.26
2017-01-27T09:54:38.244Z,66.74
2017-01-27T09:55:38.252Z,66.54
2017-01-27T09:56:38.261Z,66.83
2017-01-27T09:57:38.273Z,66.74
2017-01-27T09:58:38.283Z,66.54
2017-01-27T09:59:37.898Z,67.02
2017-01-27T10:00:38.304Z,66.74
2017-01-27T10:01:38.308Z,67.02
2017-01-27T10:02:38.322Z,66.83
2017-01-27T10:03:38.332Z,67.02
2017-01-27T10:04:38.337Z,66.93
2017-01-27T10:05:38.350Z,66.45
2017-01-27T10:06:37.969Z,66.45
2017-01-27T10:07:38.370Z,66.16
2017-01-27T10:08:38.380Z,66.35
2017-01-27T10:09:38.391Z,66.16
2017-01-27T10:10:38.401Z,65.88
2017-01-27T10:11:38.423Z,66.16
2017-01-27T10:12:38.421Z,66.54
2017-01-27T10:13:38.432Z,66.16
2017-01-27T10:14:38.442Z,66.54
2017-01-27T10:15:38.454Z,66.54
2017-01-27T10:16:38.469Z,66.64
2017-01-27T10:17:38.476Z,66.26
2017-01-27T10:18:38.491Z,66.83
2017-01-27T10:19:38.491Z,66.07
2017-01-27T10:20:38.513Z,65.91
2017-01-27T10:21:38.518Z,66.2
2017-01-27T10:22:38.525Z,66.01
2017-01-27T10:23:38.535Z,66.39
2017-01-27T10:24:38.543Z,66.2
2017-01-27T10:25:38.564Z,66.58
2017-01-27T10:26:38.565Z,66.29
2017-01-27T10:27:38.605Z,66.2
2017-01-27T10:28:38.588Z,65.63
2017-01-27T10:29:38.605Z,65.82
2017-01-27T10:30:38.607Z,65.91
2017-01-27T10:31:38.620Z,65.91
2017-01-27T10:32:38.628Z,65.82
2017-01-27T10:33:38.639Z,65.72
2017-01-27T10:34:38.647Z,65.72
2017-01-27T10:35:38.656Z,65.34
2017-01-27T10:36:38.675Z,65.16
2017-01-27T10:37:38.682Z,65.53
2017-01-27T10:38:38.694Z,65.44
2017-01-27T10:39:38.705Z,65.44
2017-01-27T10:40:38.712Z,65.34
2017-01-27T10:41:38.825Z,65.53
2017-01-27T10:42:38.731Z,65.25
2017-01-27T10:43:38.747Z,65.34
2017-01-27T10:44:38.752Z,65.44
2017-01-27T10:45:38.764Z,65.53
2017-01-27T10:46:38.775Z,65.63
2017-01-27T10:47:38.785Z,65.06
2017-01-27T10:48:38.797Z,65.44
2017-01-27T10:49:38.808Z,65.34
2017-01-27T10:50:38.430Z,65.16
2017-01-27T10:51:38.825Z,65.16
2017-01-27T10:52:38.445Z,64.81
2017-01-27T10:53:38.849Z,64.68
2017-01-27T10:54:38.859Z,64.9
2017-01-27T10:55:38.867Z,64.81
2017-01-27T10:56:38.886Z,64.9
2017-01-27T10:57:38.898Z,65
2017-01-27T10:58:38.900Z,65
2017-01-27T10:59:38.913Z,65.09
2017-01-27T11:00:38.925Z,64.81
2017-01-27T11:01:38.934Z,65
2017-01-27T11:02:38.946Z,64.9
2017-01-27T11:03:38.959Z,65.19
2017-01-27T11:04:38.969Z,64.24
2017-01-27T11:05:38.979Z,65.28
2017-01-27T11:06:38.989Z,65.28
2017-01-27T11:07:39.001Z,64.9
2017-01-27T11:08:39.015Z,64.14
2017-01-27T11:09:39.020Z,63.95
2017-01-27T11:10:39.031Z,64.52
2017-01-27T11:11:39.042Z,64.33
2017-01-27T11:12:39.052Z,63.86
2017-01-27T11:13:39.066Z,63.86
2017-01-27T11:14:39.077Z,64.24
2017-01-27T11:15:38.698Z,63.86
2017-01-27T11:16:39.092Z,63.95
2017-01-27T11:17:39.106Z,63.95
2017-01-27T11:18:39.120Z,63.76
2017-01-27T11:19:39.128Z,63.57
2017-01-27T11:20:39.138Z,63.1
2017-01-27T11:21:39.161Z,62.82
2017-01-27T11:22:39.160Z,63.39
2017-01-27T11:23:39.171Z,63.57
2017-01-27T11:24:38.789Z,63.57
2017-01-27T11:25:39.192Z,63.39
2017-01-27T11:26:39.204Z,63.76
2017-01-27T11:27:39.223Z,63.67
2017-01-27T11:28:39.223Z,63.29
2017-01-27T11:29:39.236Z,63.76
2017-01-27T11:30:39.248Z,63.29
2017-01-27T11:31:39.256Z,63.32
2017-01-27T11:32:39.269Z,63.23
2017-01-27T11:33:38.884Z,63.51
2017-01-27T11:34:39.293Z,63.42
2017-01-27T11:35:39.308Z,63.04
2017-01-27T11:36:39.315Z,62.75
2017-01-27T11:37:39.332Z,62.66
2017-01-27T11:38:39.340Z,62.46
2017-01-27T11:39:39.348Z,62.85
2017-01-27T11:40:39.365Z,62.75
2017-01-27T11:41:39.369Z,62.85
2017-01-27T11:42:39.388Z,62.46
2017-01-27T11:43:38.996Z,63.13
2017-01-27T11:44:39.412Z,63.13
2017-01-27T11:45:39.416Z,62.94
2017-01-27T11:46:39.424Z,62.94
2017-01-27T11:47:39.440Z,62.66
2017-01-27T11:48:39.449Z,62.27
2017-01-27T11:49:39.458Z,62.46
2017-01-27T11:50:39.478Z,62.27
2017-01-27T11:51:39.490Z,62.08
2017-01-27T11:52:39.493Z,62.46
2017-01-27T11:53:39.503Z,62.46
2017-01-27T11:54:39.516Z,62.66
2017-01-27T11:55:39.528Z,62.08
2017-01-27T11:56:39.547Z,62.08
2017-01-27T11:57:39.553Z,62.37
2017-01-27T11:58:39.164Z,62.37
2017-01-27T11:59:39.574Z,62.37
2017-01-27T12:00:39.587Z,62.08
2017-01-27T12:01:39.599Z,62.08
2017-01-27T12:02:39.611Z,62.56
2017-01-27T12:03:39.230Z,62.27
2017-01-27T12:04:39.632Z,62.08
2017-01-27T12:05:39.645Z,62.27
2017-01-27T12:06:39.653Z,62.37
2017-01-27T12:07:39.667Z,62.46
2017-01-27T12:08:39.283Z,62.08
2017-01-27T12:09:39.690Z,62.08
2017-01-27T12:10:39.700Z,62.27
2017-01-27T12:11:39.712Z,61.99
2017-01-27T12:12:39.723Z,62.46
2017-01-27T12:13:39.736Z,62.4
2017-01-27T12:14:39.750Z,62.5
2017-01-27T12:15:39.761Z,62.12
2017-01-27T12:16:39.772Z,61.93
2017-01-27T12:17:39.781Z,61.8
2017-01-27T12:18:39.797Z,62.31
2017-01-27T12:19:39.808Z,62.31
2017-01-27T12:20:39.847Z,61.83
2017-01-27T12:21:39.828Z,61.45
2017-01-27T12:22:39.841Z,61.65
2017-01-27T12:23:39.860Z,61.74
2017-01-27T12:24:39.868Z,61.74
2017-01-27T12:25:39.884Z,61.83
2017-01-27T12:26:39.498Z,61.36
2017-01-27T12:27:39.904Z,61.45
2017-01-27T12:28:39.525Z,61.55
2017-01-27T12:29:39.923Z,61.36
2017-01-27T12:30:39.949Z,61.36
2017-01-27T12:31:39.947Z,61.83
2017-01-27T12:32:39.569Z,61.83
2017-01-27T12:33:39.578Z,61.26
2017-01-27T12:34:39.984Z,61.45
2017-01-27T12:35:40.002Z,61.45
2017-01-27T12:36:40.007Z,61.26
2017-01-27T12:37:40.018Z,61.74
2017-01-27T12:38:40.032Z,61.93
2017-01-27T12:39:40.044Z,61.55
2017-01-27T12:40:40.061Z,61.26
2017-01-27T12:41:40.067Z,61.55
2017-01-27T12:42:40.137Z,61.55
2017-01-27T12:43:40.119Z,61.45
2017-01-27T12:44:40.103Z,61.65
2017-01-27T12:45:40.115Z,61.55
2017-01-27T12:46:40.128Z,61.74
2017-01-27T12:47:40.153Z,61.17
2017-01-27T12:48:40.153Z,61.17
2017-01-27T12:49:40.167Z,61.07
2017-01-27T12:50:40.179Z,61.26
2017-01-27T12:51:40.188Z,61.07
2017-01-27T12:52:40.204Z,61.07
2017-01-27T12:53:39.814Z,61.17
2017-01-27T12:54:40.225Z,60.88